^^
Saratoga-Weather Station Historical Data
Daily Summary for April 8, 2021 Units:  English    Metric   Both
Daily Weekly Monthly Yearly Custom
  High: Low: Average:
Temperature: 83.5 °F 57.9 °F 68.9 °F
Dew Point: 60.3 °F 54.7 °F 57 °F
Humidity: 90% 39% 69%
Wind Speed: 6.9mph 0mph 0.7mph
Wind Gust: 8mph - -
Wind- - ESE
Pressure: 30.1 in 29.9 in -
Precipitation: 0 in    
Historical Graphs
 
 
Tabular Data for April 8, 2021
Time Temperature Dew Point Pressure Wind Wind Speed Wind Gust Humidity Rainfall Rate (Hourly) solar
00:04 62.8 °F 57.2 °F 30.1 in Calm     82% 0 in 0 W/m2
00:09 62.8 °F 57.2 °F 30.1 in Calm     82% 0 in 0 W/m2
00:14 62.4 °F 56.8 °F 30.1 in Calm     82% 0 in 0 W/m2
00:19 62.4 °F 56.8 °F 30.1 in Calm   1 mph 82% 0 in 0 W/m2
00:24 62.4 °F 56.8 °F 30.1 in Calm     82% 0 in 0 W/m2
00:29 62.2 °F 56.7 °F 30.1 in SE 2 mph 2 mph 82% 0 in 0 W/m2
00:34 62.2 °F 56.7 °F 30.1 in Calm     82% 0 in 0 W/m2
00:39 62.2 °F 56.7 °F 30.1 in SE 0.9 mph 2 mph 82% 0 in 0 W/m2
00:44 62.2 °F 56.7 °F 30.1 in SE 0.9 mph 1 mph 82% 0 in 0 W/m2
00:49 62.2 °F 56.7 °F 30.1 in Calm     82% 0 in 0 W/m2
00:54 62.2 °F 56.7 °F 30.1 in Calm     82% 0 in 0 W/m2
00:59 62.1 °F 56.5 °F 30.1 in Calm     82% 0 in 0 W/m2
01:04 62.1 °F 56.8 °F 30.1 in Calm     83% 0 in 0 W/m2
01:10 62.1 °F 56.8 °F 30.1 in Calm     83% 0 in 0 W/m2
01:15 61.9 °F 56.7 °F 30.1 in Calm     83% 0 in 0 W/m2
01:20 61.9 °F 56.7 °F 30.1 in Calm     83% 0 in 0 W/m2
01:25 61.9 °F 56.7 °F 30.1 in Calm     83% 0 in 0 W/m2
01:30 61.7 °F 56.5 °F 30.1 in Calm     83% 0 in 0 W/m2
01:35 61.5 °F 56.3 °F 30.1 in Calm     83% 0 in 0 W/m2
01:40 61.3 °F 56.1 °F 30.1 in Calm     83% 0 in 0 W/m2
01:45 61.3 °F 56.5 °F 30.1 in Calm     84% 0 in 0 W/m2
01:50 61.2 °F 56.3 °F 30.1 in Calm     84% 0 in 0 W/m2
01:55 61.2 °F 56.3 °F 30.1 in Calm     84% 0 in 0 W/m2
02:00 61 °F 56.5 °F 30.1 in Calm     85% 0 in 0 W/m2
02:05 61 °F 56.5 °F 30.1 in Calm     85% 0 in 0 W/m2
02:10 60.8 °F 56.3 °F 30.1 in Calm     85% 0 in 0 W/m2
02:15 60.6 °F 56.1 °F 30.1 in Calm     85% 0 in 0 W/m2
02:20 60.4 °F 56.3 °F 30.1 in Calm     86% 0 in 0 W/m2
02:25 60.3 °F 56.1 °F 30.1 in Calm     86% 0 in 0 W/m2
02:30 60.3 °F 56.3 °F 30.1 in Calm     87% 0 in 0 W/m2
02:35 60.3 °F 56.3 °F 30.1 in Calm     87% 0 in 0 W/m2
02:40 60.1 °F 56.1 °F 30.1 in Calm     87% 0 in 0 W/m2
02:45 60.1 °F 56.1 °F 30.1 in Calm     87% 0 in 0 W/m2
02:50 59.9 °F 55.9 °F 30.1 in Calm     87% 0 in 0 W/m2
02:55 59.7 °F 55.8 °F 30 in Calm     87% 0 in 0 W/m2
03:00 59.7 °F 56.1 °F 30 in Calm     88% 0 in 0 W/m2
03:05 59.5 °F 55.9 °F 30.1 in Calm     88% 0 in 0 W/m2
03:10 59.5 °F 55.9 °F 30 in Calm     88% 0 in 0 W/m2
03:15 59.5 °F 55.9 °F 30 in Calm     88% 0 in 0 W/m2
03:20 59.4 °F 56.1 °F 30 in Calm     89% 0 in 0 W/m2
03:25 59.4 °F 56.1 °F 30 in Calm     89% 0 in 0 W/m2
03:30 59.4 °F 56.1 °F 30 in Calm     89% 0 in 0 W/m2
03:35 59.4 °F 56.1 °F 30 in Calm     89% 0 in 0 W/m2
03:40 59.4 °F 56.1 °F 30 in Calm     89% 0 in 0 W/m2
03:45 59.2 °F 55.9 °F 30 in Calm     89% 0 in 0 W/m2
03:50 59.2 °F 55.9 °F 30 in Calm     89% 0 in 0 W/m2
03:55 59.2 °F 55.9 °F 30 in Calm     89% 0 in 0 W/m2
04:00 59.2 °F 55.9 °F 30 in Calm     89% 0 in 0 W/m2
04:05 59.2 °F 55.9 °F 30 in Calm     89% 0 in 0 W/m2
04:10 59.2 °F 55.9 °F 30 in Calm     89% 0 in 0 W/m2
04:15 59 °F 55.8 °F 30 in Calm     89% 0 in 0 W/m2
04:20 59 °F 55.8 °F 30 in Calm     89% 0 in 0 W/m2
04:25 59 °F 55.8 °F 30 in Calm     89% 0 in 0 W/m2
04:30 58.8 °F 55.6 °F 30 in Calm     89% 0 in 0 W/m2
04:35 58.8 °F 55.6 °F 30 in Calm     89% 0 in 0 W/m2
04:40 59 °F 55.8 °F 30 in Calm     89% 0 in 0 W/m2
04:45 59 °F 55.8 °F 30 in Calm     89% 0 in 0 W/m2
04:50 58.8 °F 55.6 °F 30 in Calm     89% 0 in 0 W/m2
04:55 58.8 °F 55.6 °F 30 in Calm     89% 0 in 0 W/m2
05:00 58.8 °F 55.6 °F 30 in Calm     89% 0 in 0 W/m2
05:05 58.8 °F 55.6 °F 30 in Calm     89% 0 in 0 W/m2
05:10 58.8 °F 55.6 °F 30 in Calm     89% 0 in 0 W/m2
05:15 58.8 °F 55.6 °F 30 in Calm     89% 0 in 0 W/m2
05:20 58.8 °F 55.6 °F 30 in Calm     89% 0 in 0 W/m2
05:25 58.8 °F 55.6 °F 30 in Calm     89% 0 in 0 W/m2
05:30 58.8 °F 55.2 °F 30 in Calm     88% 0 in 0 W/m2
05:35 58.8 °F 55.2 °F 30 in Calm     88% 0 in 0 W/m2
05:40 58.8 °F 55.2 °F 30 in Calm     88% 0 in 0 W/m2
05:45 58.8 °F 55.2 °F 30 in Calm     88% 0 in 0 W/m2
05:50 58.8 °F 55.6 °F 30 in Calm     89% 0 in 0 W/m2
05:55 58.8 °F 55.6 °F 30 in ESE 2.9 mph 4 mph 89% 0 in 0 W/m2
06:00 59 °F 55.4 °F 30 in Calm   1 mph 88% 0 in 0 W/m2
06:05 59 °F 55.4 °F 30 in ESE 2 mph 4 mph 88% 0 in 0 W/m2
06:10 58.8 °F 55.2 °F 30 in Calm   1 mph 88% 0 in 0 W/m2
06:15 58.6 °F 55 °F 30 in Calm     88% 0 in 0 W/m2
06:20 58.6 °F 55 °F 30 in Calm     88% 0 in 0 W/m2
06:25 58.5 °F 54.9 °F 30 in Calm   1 mph 88% 0 in 0 W/m2
06:30 58.3 °F 55 °F 30 in Calm     89% 0 in 0 W/m2
06:35 58.3 °F 55 °F 30 in Calm   2 mph 89% 0 in 0 W/m2
06:40 58.1 °F 54.9 °F 30 in Calm     89% 0 in 0 W/m2
06:46 57.9 °F 54.7 °F 30 in Calm   2 mph 89% 0 in 0 W/m2
06:51 57.9 °F 54.7 °F 30 in SE 0.9 mph 2 mph 89% 0 in 0 W/m2
06:56 57.9 °F 55 °F 30 in SE 0.9 mph 1 mph 90% 0 in 0 W/m2
07:01 57.9 °F 55 °F 30 in Calm   2 mph 90% 0 in 0 W/m2
07:06 57.9 °F 55 °F 30 in SE 0.9 mph 2 mph 90% 0 in 5 W/m2
07:11 57.9 °F 55 °F 30 in Calm   2 mph 90% 0 in 5 W/m2
07:16 58.1 °F 54.9 °F 30 in SE 2 mph 2 mph 89% 0 in 9 W/m2
07:21 58.3 °F 55 °F 30 in SE 0.9 mph 2 mph 89% 0 in 11 W/m2
07:26 58.5 °F 55.2 °F 30 in Calm   1 mph 89% 0 in 12 W/m2
07:31 58.6 °F 55.4 °F 30 in SE 0.9 mph 1 mph 89% 0 in 14 W/m2
07:36 58.8 °F 55.2 °F 30 in SE 0.9 mph 2 mph 88% 0 in 16 W/m2
07:41 58.8 °F 55.2 °F 30 in Calm   1 mph 88% 0 in 18 W/m2
07:46 59 °F 55.4 °F 30 in SE 0.9 mph 2 mph 88% 0 in 19 W/m2
07:51 59.2 °F 55.4 °F 30 in Calm     87% 0 in 21 W/m2
07:56 59.4 °F 55.4 °F 30 in SE 0.9 mph 1 mph 87% 0 in 23 W/m2
08:01 59.4 °F 55.4 °F 30 in Calm   1 mph 87% 0 in 25 W/m2
08:06 59.5 °F 55.4 °F 30 in Calm   1 mph 86% 0 in 26 W/m2
08:11 59.7 °F 55.6 °F 30 in Calm     86% 0 in 28 W/m2
08:16 59.7 °F 55.6 °F 30 in Calm   1 mph 86% 0 in 88 W/m2
08:21 60.1 °F 55.9 °F 30 in Calm   1 mph 86% 0 in 109 W/m2
08:26 60.3 °F 55.8 °F 30 in Calm     85% 0 in 63 W/m2
08:31 60.4 °F 55.9 °F 30 in Calm     85% 0 in 102 W/m2
08:36 60.6 °F 56.1 °F 30 in Calm     85% 0 in 155 W/m2
08:41 61 °F 56.1 °F 30 in Calm     84% 0 in 165 W/m2
08:46 61.3 °F 56.1 °F 30 in Calm     83% 0 in 185 W/m2
08:51 61.9 °F 56.7 °F 30 in Calm     83% 0 in 200 W/m2
08:56 62.1 °F 56.5 °F 30 in Calm     82% 0 in 207 W/m2
09:01 62.4 °F 56.5 °F 30 in Calm   1 mph 81% 0 in 42 W/m2
09:06 63 °F 56.7 °F 30 in Calm   1 mph 80% 0 in 77 W/m2
09:11 63.3 °F 56.7 °F 30 in SE 2.9 mph 3 mph 79% 0 in 257 W/m2
09:16 63.9 °F 56.8 °F 30 in East 2 mph 3 mph 78% 0 in 274 W/m2
09:21 64.4 °F 57 °F 30 in Calm   2 mph 77% 0 in 288 W/m2
09:26 64.9 °F 57.2 °F 30 in Calm   1 mph 76% 0 in 301 W/m2
09:31 65.5 °F 57.4 °F 30 in East 2.9 mph 4 mph 75% 0 in 316 W/m2
09:36 65.7 °F 57.2 °F 30 in Calm   3 mph 74% 0 in 329 W/m2
09:41 65.8 °F 57 °F 30 in Calm   3 mph 73% 0 in 341 W/m2
09:46 66.4 °F 57.4 °F 30 in NNW 0.9 mph 4 mph 73% 0 in 357 W/m2
09:51 66.6 °F 57.2 °F 30 in NNE 0.9 mph 5 mph 72% 0 in 367 W/m2
09:56 66.7 °F 57.7 °F 30 in Calm   2 mph 73% 0 in 385 W/m2
10:01 67.3 °F 58.3 °F 30 in Calm   5 mph 73% 0 in 397 W/m2
10:06 67.8 °F 58.1 °F 30 in ENE 2.9 mph 4 mph 71% 0 in 410 W/m2
10:11 68.2 °F 58.1 °F 30 in Calm   2 mph 70% 0 in 424 W/m2
10:16 68.5 °F 58.3 °F 30 in ENE 2.9 mph 3 mph 70% 0 in 438 W/m2
10:21 69.1 °F 58.5 °F 30 in NE 2.9 mph 4 mph 69% 0 in 448 W/m2
10:26 68.9 °F 57.9 °F 30 in Calm   5 mph 68% 0 in 459 W/m2
10:31 69.1 °F 58.8 °F 30 in ENE 4 mph 5 mph 70% 0 in 475 W/m2
10:36 69.3 °F 58.3 °F 30 in SE 2.9 mph 3 mph 68% 0 in 483 W/m2
10:41 69.6 °F 58.6 °F 30 in East 2 mph 4 mph 68% 0 in 497 W/m2
10:46 70 °F 59 °F 30 in North 0.9 mph 4 mph 68% 0 in 504 W/m2
10:51 70.3 °F 59.4 °F 30 in East 2 mph 3 mph 68% 0 in 513 W/m2
10:56 70.9 °F 59 °F 30 in ENE 2.9 mph 5 mph 66% 0 in 527 W/m2
11:01 71.2 °F 58.5 °F 30 in ENE 6.9 mph 7 mph 64% 0 in 536 W/m2
11:06 71.4 °F 59 °F 30 in North 0.9 mph 4 mph 65% 0 in 545 W/m2
11:11 71.8 °F 59 °F 30 in ESE 6 mph 6 mph 64% 0 in 557 W/m2
11:16 72.3 °F 58.6 °F 30 in East 2.9 mph 3 mph 62% 0 in 570 W/m2
11:21 72.9 °F 59 °F 30 in NE 2 mph 2 mph 62% 0 in 578 W/m2
11:26 73.2 °F 58.5 °F 30 in NE 0.9 mph 3 mph 60% 0 in 585 W/m2
11:31 73.6 °F 58.3 °F 30 in East 2 mph 3 mph 59% 0 in 596 W/m2
11:36 73.8 °F 58.1 °F 30 in Calm   5 mph 58% 0 in 606 W/m2
11:41 73.9 °F 57.2 °F 30 in East 0.9 mph 4 mph 56% 0 in 615 W/m2
11:46 74.1 °F 57.4 °F 30 in ENE 0.9 mph 3 mph 56% 0 in 622 W/m2
11:51 74.7 °F 57.4 °F 30 in ESE 2.9 mph 8 mph 55% 0 in 633 W/m2
11:56 75 °F 58.3 °F 30 in ENE 2.9 mph 5 mph 56% 0 in 640 W/m2
12:01 75.6 °F 57.7 °F 30 in East 2.9 mph 8 mph 54% 0 in 647 W/m2
12:06 75.9 °F 57.6 °F 30 in ENE 2 mph 4 mph 53% 0 in 652 W/m2
12:11 76.5 °F 57.6 °F 30 in South 0.9 mph 3 mph 52% 0 in 659 W/m2
12:16 76.6 °F 56.1 °F 30 in Calm   5 mph 49% 0 in 668 W/m2
12:21 76.8 °F 56.8 °F 30 in East 0.9 mph 8 mph 50% 0 in 671 W/m2
12:26 77.2 °F 57.7 °F 30 in NE 2 mph 3 mph 51% 0 in 679 W/m2
12:31 77.4 °F 57.2 °F 30 in ENE 2.9 mph 8 mph 50% 0 in 684 W/m2
12:36 77.5 °F 58.5 °F 30 in NNW 0.9 mph 3 mph 52% 0 in 686 W/m2
12:41 77.5 °F 59 °F 30 in SW 0.9 mph 3 mph 53% 0 in 689 W/m2
12:46 77.5 °F 57.9 °F 30 in East 2 mph 4 mph 51% 0 in 689 W/m2
12:52 78.1 °F 57.9 °F 29.9 in ESE 2 mph 7 mph 50% 0 in 694 W/m2
12:57 78.4 °F 58.3 °F 29.9 in ENE 2 mph 4 mph 50% 0 in 694 W/m2
13:02 78.6 °F 57.9 °F 29.9 in ENE 2 mph 7 mph 49% 0 in 694 W/m2
13:07 78.6 °F 57.9 °F 29.9 in ESE 0.9 mph 7 mph 49% 0 in 701 W/m2
13:12 79 °F 58.8 °F 29.9 in ENE 2.9 mph 8 mph 50% 0 in 701 W/m2
13:17 79 °F 57 °F 29.9 in East 2.9 mph 7 mph 47% 0 in 707 W/m2
13:22 79 °F 58.1 °F 29.9 in NE 2 mph 2 mph 49% 0 in 703 W/m2
13:27 79 °F 57 °F 29.9 in SE 0.9 mph 7 mph 47% 0 in 705 W/m2
13:32 79.2 °F 57.7 °F 29.9 in East 4.9 mph 6 mph 48% 0 in 703 W/m2
13:37 79.3 °F 57.4 °F 29.9 in ESE 0.9 mph 8 mph 47% 0 in 707 W/m2
13:42 79.3 °F 57.9 °F 29.9 in NE 0.9 mph 5 mph 48% 0 in 703 W/m2
13:47 79.9 °F 58.5 °F 29.9 in NE 2.9 mph 4 mph 48% 0 in 707 W/m2
13:52 80.2 °F 57.6 °F 29.9 in SE 0.9 mph 2 mph 46% 0 in 703 W/m2
13:57 80.2 °F 57 °F 29.9 in SE 2.9 mph 4 mph 45% 0 in 705 W/m2
14:02 80.4 °F 58.3 °F 29.9 in ENE 2.9 mph 7 mph 47% 0 in 707 W/m2
14:07 80.4 °F 58.3 °F 29.9 in ESE 0.9 mph 2 mph 47% 0 in 698 W/m2
14:12 80.4 °F 56.5 °F 29.9 in East 2.9 mph 7 mph 44% 0 in 700 W/m2
14:17 80.6 °F 57.4 °F 29.9 in NW 4 mph 5 mph 45% 0 in 703 W/m2
14:22 80.6 °F 57.4 °F 29.9 in East 0.9 mph 2 mph 45% 0 in 696 W/m2
14:27 80.6 °F 57.4 °F 29.9 in East 2.9 mph 3 mph 45% 0 in 694 W/m2
14:32 81 °F 57 °F 29.9 in NE 2.9 mph 3 mph 44% 0 in 687 W/m2
14:37 81.3 °F 57.4 °F 29.9 in NNE 2 mph 4 mph 44% 0 in 691 W/m2
14:42 81.3 °F 56.7 °F 29.9 in ESE 2 mph 5 mph 43% 0 in 700 W/m2
14:47 81.3 °F 57.9 °F 29.9 in North 0.9 mph 2 mph 45% 0 in 712 W/m2
14:52 81.3 °F 57.4 °F 29.9 in ENE 4 mph 5 mph 44% 0 in 417 W/m2
14:57 81.1 °F 56.5 °F 29.9 in Calm   2 mph 43% 0 in 717 W/m2
15:02 81 °F 58.3 °F 29.9 in Calm   2 mph 46% 0 in 387 W/m2
15:07 81.3 °F 57.4 °F 29.9 in NE 2 mph 7 mph 44% 0 in 677 W/m2
15:12 81.7 °F 56.3 °F 29.9 in NNW 0.9 mph 5 mph 42% 0 in 649 W/m2
15:17 81.9 °F 59.7 °F 29.9 in ENE 0.9 mph 3 mph 47% 0 in 640 W/m2
15:22 82 °F 56.7 °F 29.9 in ENE 2 mph 7 mph 42% 0 in 624 W/m2
15:27 82.2 °F 56.8 °F 29.9 in SE 0.9 mph 5 mph 42% 0 in 633 W/m2
15:32 82.2 °F 57.6 °F 29.9 in Calm   1 mph 43% 0 in 621 W/m2
15:37 82 °F 58.6 °F 29.9 in NW 0.9 mph 3 mph 45% 0 in 610 W/m2
15:42 82.2 °F 57.6 °F 29.9 in ESE 0.9 mph 4 mph 43% 0 in 599 W/m2
15:47 82.2 °F 58.1 °F 29.9 in East 2.9 mph 3 mph 44% 0 in 601 W/m2
15:52 82.6 °F 57.7 °F 29.9 in SE 2 mph 2 mph 43% 0 in 599 W/m2
15:57 82.6 °F 57.2 °F 29.9 in NE 2.9 mph 7 mph 42% 0 in 580 W/m2
16:02 82.6 °F 56.5 °F 29.9 in ESE 0.9 mph 3 mph 41% 0 in 575 W/m2
16:07 82.8 °F 58.6 °F 29.9 in ESE 0.9 mph 2 mph 44% 0 in 561 W/m2
16:12 82.9 °F 58.1 °F 29.9 in ESE 2 mph 3 mph 43% 0 in 554 W/m2
16:17 82.9 °F 58.1 °F 29.9 in NE 4 mph 4 mph 43% 0 in 548 W/m2
16:22 83.5 °F 55.9 °F 29.9 in ENE 2.9 mph 4 mph 39% 0 in 534 W/m2
16:27 83.3 °F 56.5 °F 29.9 in East 0.9 mph 4 mph 40% 0 in 526 W/m2
16:32 83.3 °F 56.5 °F 29.9 in ENE 0.9 mph 2 mph 40% 0 in 520 W/m2
16:37 83.5 °F 58.6 °F 29.9 in ENE 4 mph 4 mph 43% 0 in 508 W/m2
16:42 83.5 °F 57.4 °F 29.9 in NNW 2 mph 3 mph 41% 0 in 434 W/m2
16:47 83.5 °F 57.9 °F 29.9 in SSE 0.9 mph 4 mph 42% 0 in 482 W/m2
16:52 83.1 °F 58.3 °F 29.9 in ESE 2 mph 4 mph 43% 0 in 461 W/m2
16:57 82.9 °F 57.6 °F 29.9 in East 0.9 mph 3 mph 42% 0 in 459 W/m2
17:02 82.8 °F 55.9 °F 29.9 in NNE 4.9 mph 5 mph 40% 0 in 390 W/m2
17:07 82.6 °F 57.7 °F 29.9 in Calm   3 mph 43% 0 in 404 W/m2
17:12 82.6 °F 58.5 °F 29.9 in Calm   5 mph 44% 0 in 415 W/m2
17:17 82.4 °F 57.7 °F 29.9 in ESE 2 mph 4 mph 43% 0 in 387 W/m2
17:22 82.2 °F 57.6 °F 29.9 in South 2 mph 3 mph 43% 0 in 364 W/m2
17:27 82 °F 58.6 °F 29.9 in Calm   3 mph 45% 0 in 383 W/m2
17:32 82 °F 57.4 °F 29.9 in WNW 2 mph 3 mph 43% 0 in 374 W/m2
17:37 82 °F 58.6 °F 29.9 in Calm   5 mph 45% 0 in 362 W/m2
17:42 82 °F 57.9 °F 29.9 in East 2.9 mph 3 mph 44% 0 in 346 W/m2
17:47 82 °F 58.6 °F 29.9 in Calm   2 mph 45% 0 in 334 W/m2
17:52 82.2 °F 58.1 °F 29.9 in Calm   1 mph 44% 0 in 318 W/m2
17:57 82.2 °F 58.1 °F 29.9 in SE 0.9 mph 2 mph 44% 0 in 308 W/m2
18:02 82.2 °F 59.4 °F 29.9 in SE 0.9 mph 1 mph 46% 0 in 290 W/m2
18:07 81.9 °F 59.7 °F 29.9 in Calm   2 mph 47% 0 in 272 W/m2
18:12 81.9 °F 59.7 °F 29.9 in Calm   2 mph 47% 0 in 258 W/m2
18:17 81.9 °F 60.3 °F 29.9 in Calm   2 mph 48% 0 in 246 W/m2
18:22 81.7 °F 59.5 °F 29.9 in ESE 0.9 mph 2 mph 47% 0 in 221 W/m2
18:27 81.7 °F 59.5 °F 29.9 in Calm   2 mph 47% 0 in 200 W/m2
18:33 81.3 °F 59.7 °F 29.9 in SE 0.9 mph 2 mph 48% 0 in 193 W/m2
18:38 81 °F 59.4 °F 29.9 in Calm   2 mph 48% 0 in 186 W/m2
18:43 80.6 °F 59.2 °F 29.9 in Calm   2 mph 48% 0 in 174 W/m2
18:48 80.1 °F 58.6 °F 29.9 in South 0.9 mph 2 mph 48% 0 in 160 W/m2
18:53 79.5 °F 59.7 °F 29.9 in South 0.9 mph 2 mph 51% 0 in 142 W/m2
18:58 79.2 °F 60.1 °F 29.9 in South 0.9 mph 1 mph 52% 0 in 128 W/m2
19:03 78.4 °F 58.8 °F 29.9 in South 2 mph 2 mph 51% 0 in 113 W/m2
19:08 77.9 °F 58.8 °F 29.9 in South 2 mph 2 mph 52% 0 in 98 W/m2
19:13 77.4 °F 58.8 °F 29.9 in South 0.9 mph 1 mph 53% 0 in 83 W/m2
19:18 76.8 °F 59 °F 29.9 in South 0.9 mph 2 mph 54% 0 in 37 W/m2
19:23 76.3 °F 59 °F 29.9 in Calm   2 mph 55% 0 in 28 W/m2
19:28 75.6 °F 58.8 °F 29.9 in South 2 mph 2 mph 56% 0 in 25 W/m2
19:33 74.7 °F 58.5 °F 29.9 in South 0.9 mph 2 mph 57% 0 in 23 W/m2
19:38 73.9 °F 58.3 °F 29.9 in SW 0.9 mph 2 mph 58% 0 in 21 W/m2
19:43 73.2 °F 58.5 °F 29.9 in Calm   2 mph 60% 0 in 18 W/m2
19:48 72.9 °F 58.6 °F 29.9 in SW 0.9 mph 2 mph 61% 0 in 14 W/m2
19:53 72.7 °F 58.8 °F 29.9 in Calm   1 mph 62% 0 in 11 W/m2
19:58 72.1 °F 58.5 °F 29.9 in Calm   2 mph 62% 0 in 7 W/m2
20:03 71.8 °F 58.5 °F 29.9 in Calm   1 mph 63% 0 in 5 W/m2
20:08 71.2 °F 57.9 °F 29.9 in Calm     63% 0 in 0 W/m2
20:13 71.1 °F 58.3 °F 29.9 in Calm     64% 0 in 0 W/m2
20:18 70.5 °F 57.7 °F 29.9 in SW 0.9 mph 2 mph 64% 0 in 0 W/m2
20:23 70.2 °F 57.9 °F 29.9 in Calm   1 mph 65% 0 in 0 W/m2
20:28 69.8 °F 57.9 °F 29.9 in SW 0.9 mph 1 mph 66% 0 in 0 W/m2
20:33 69.4 °F 57.6 °F 29.9 in Calm   1 mph 66% 0 in 0 W/m2
20:38 69.1 °F 57.7 °F 29.9 in Calm   1 mph 67% 0 in 0 W/m2
20:43 68.7 °F 57.4 °F 29.9 in SW 0.9 mph 1 mph 67% 0 in 0 W/m2
20:48 68.5 °F 57.6 °F 29.9 in Calm   1 mph 68% 0 in 0 W/m2
20:53 68.2 °F 57.2 °F 29.9 in Calm     68% 0 in 0 W/m2
20:58 68 °F 57.4 °F 29.9 in SW 0.9 mph 1 mph 69% 0 in 0 W/m2
21:03 67.6 °F 57 °F 29.9 in Calm   1 mph 69% 0 in 0 W/m2
21:08 67.5 °F 57.4 °F 29.9 in Calm   1 mph 70% 0 in 0 W/m2
21:13 67.3 °F 57.2 °F 29.9 in Calm     70% 0 in 0 W/m2
21:18 66.9 °F 57.2 °F 29.9 in Calm   1 mph 71% 0 in 0 W/m2
21:23 66.7 °F 57 °F 29.9 in Calm     71% 0 in 0 W/m2
21:28 66.6 °F 57.2 °F 29.9 in Calm     72% 0 in 0 W/m2
21:33 66.4 °F 57 °F 29.9 in Calm     72% 0 in 0 W/m2
21:38 66.2 °F 57.2 °F 29.9 in Calm     73% 0 in 0 W/m2
21:43 65.8 °F 57 °F 29.9 in Calm   1 mph 73% 0 in 0 W/m2
21:48 65.8 °F 57 °F 29.9 in Calm     73% 0 in 0 W/m2
21:53 65.7 °F 57.2 °F 29.9 in Calm     74% 0 in 0 W/m2
22:03 65.3 °F 57.2 °F 29.9 in Calm     75% 0 in 0 W/m2
22:08 65.1 °F 57 °F 29.9 in Calm     75% 0 in 0 W/m2
22:13 64.9 °F 56.8 °F 29.9 in Calm     75% 0 in 0 W/m2
22:18 64.8 °F 56.7 °F 29.9 in Calm     75% 0 in 0 W/m2
22:23 64.8 °F 57 °F 29.9 in Calm     76% 0 in 0 W/m2
22:28 64.6 °F 56.8 °F 29.9 in Calm     76% 0 in 0 W/m2
22:33 64.6 °F 57.2 °F 29.9 in Calm     77% 0 in 0 W/m2
22:38 64.2 °F 56.8 °F 29.9 in Calm     77% 0 in 0 W/m2
22:43 64.2 °F 56.8 °F 29.9 in Calm     77% 0 in 0 W/m2
22:48 64 °F 56.7 °F 29.9 in Calm     77% 0 in 0 W/m2
22:53 64 °F 57 °F 29.9 in Calm     78% 0 in 0 W/m2
22:58 63.9 °F 56.8 °F 29.9 in Calm     78% 0 in 0 W/m2
23:03 63.7 °F 56.7 °F 29.9 in Calm     78% 0 in 0 W/m2
23:08 63.5 °F 56.8 °F 29.9 in Calm     79% 0 in 0 W/m2
23:13 63.3 °F 56.7 °F 29.9 in Calm     79% 0 in 0 W/m2
23:18 63.3 °F 56.7 °F 29.9 in Calm     79% 0 in 0 W/m2
23:23 63.1 °F 56.5 °F 29.9 in Calm     79% 0 in 0 W/m2
23:28 63 °F 56.7 °F 29.9 in Calm     80% 0 in 0 W/m2
23:33 63 °F 56.7 °F 29.9 in Calm     80% 0 in 0 W/m2
23:38 62.8 °F 56.5 °F 29.9 in Calm     80% 0 in 0 W/m2
23:43 62.8 °F 56.8 °F 29.9 in Calm     81% 0 in 0 W/m2
23:48 62.8 °F 56.8 °F 29.9 in Calm     81% 0 in 0 W/m2
23:53 62.6 °F 56.7 °F 29.9 in Calm     81% 0 in 0 W/m2
23:58 62.4 °F 56.8 °F 29.9 in Calm     82% 0 in 0 W/m2
Juneau County Weather
Compliments of Weather Underground - 4 mb